createdAt,value
2019-05-23T00:01:19.478Z,35.23
2019-05-23T00:02:40.960Z,35.14
2019-05-23T00:04:03.150Z,35.11
2019-05-23T00:05:24.876Z,35.20
2019-05-23T00:06:44.490Z,35.22
2019-05-23T00:08:05.828Z,35.35
2019-05-23T00:09:19.570Z,35.35
2019-05-23T00:10:23.023Z,35.36
2019-05-23T00:11:39.769Z,35.41
2019-05-23T00:13:02.926Z,35.38
2019-05-23T00:14:20.164Z,35.31
2019-05-23T00:15:32.020Z,35.36
2019-05-23T00:16:35.513Z,35.37
2019-05-23T00:17:37.292Z,35.35
2019-05-23T00:18:38.673Z,35.45
2019-05-23T00:19:41.676Z,35.49
2019-05-23T00:20:45.262Z,35.48
2019-05-23T00:21:48.459Z,35.47
2019-05-23T00:22:50.749Z,35.53
2019-05-23T00:23:52.320Z,35.53
2019-05-23T00:24:55.238Z,35.53
2019-05-23T00:25:56.628Z,35.56
2019-05-23T00:26:58.112Z,35.59
2019-05-23T00:28:00.833Z,35.55
2019-05-23T00:29:10.152Z,35.42
2019-05-23T00:30:08.368Z,35.42
2019-05-23T00:31:20.497Z,35.40
2019-05-23T00:32:37.448Z,35.33
2019-05-23T00:33:40.532Z,35.32
2019-05-23T00:34:42.321Z,35.28
2019-05-23T00:35:44.825Z,35.28
2019-05-23T00:36:46.535Z,35.36
2019-05-23T00:37:48.651Z,35.36
2019-05-23T00:38:51.213Z,35.33
2019-05-23T00:39:53.561Z,35.32
2019-05-23T00:40:55.181Z,35.32
2019-05-23T00:41:56.972Z,35.35
2019-05-23T00:42:58.868Z,35.30
2019-05-23T00:44:00.946Z,35.27
2019-05-23T00:45:06.143Z,35.23
2019-05-23T00:46:08.830Z,35.30
2019-05-23T00:47:10.514Z,35.34
2019-05-23T00:48:13.016Z,35.35
2019-05-23T00:49:15.304Z,35.39
2019-05-23T00:50:19.593Z,35.41
2019-05-23T00:51:23.005Z,35.35
2019-05-23T00:52:24.795Z,35.35
2019-05-23T00:53:28.096Z,35.28
2019-05-23T00:54:29.775Z,35.17
2019-05-23T00:55:31.967Z,35.21
2019-05-23T00:56:35.259Z,35.27
2019-05-23T00:57:39.244Z,35.20
2019-05-23T00:58:41.633Z,35.29
2019-05-23T00:59:43.513Z,35.18
2019-05-23T01:00:45.016Z,35.13
2019-05-23T01:01:48.424Z,35.13
2019-05-23T01:02:51.495Z,35.14
2019-05-23T01:03:54.086Z,35.09
2019-05-23T01:04:55.588Z,35.14
2019-05-23T01:05:58.001Z,35.05
2019-05-23T01:06:59.921Z,35.04
2019-05-23T01:08:01.890Z,34.95
2019-05-23T01:09:06.428Z,34.89
2019-05-23T01:10:11.976Z,34.92
2019-05-23T01:11:15.633Z,34.93
2019-05-23T01:12:17.740Z,34.89
2019-05-23T01:13:20.153Z,34.87
2019-05-23T01:14:21.582Z,34.94
2019-05-23T01:15:24.077Z,34.92
2019-05-23T01:16:29.188Z,34.91
2019-05-23T01:17:31.407Z,34.89
2019-05-23T01:18:32.886Z,34.82
2019-05-23T01:19:36.496Z,34.85
2019-05-23T01:20:49.167Z,34.84
2019-05-23T01:22:01.318Z,34.88
2019-05-23T01:23:04.335Z,34.83
2019-05-23T01:24:19.872Z,34.84
2019-05-23T01:25:22.089Z,34.91
2019-05-23T01:26:23.721Z,34.87
2019-05-23T01:27:27.251Z,34.96
2019-05-23T01:28:29.258Z,35.06
2019-05-23T01:29:37.845Z,35.03
2019-05-23T01:30:40.507Z,35.01
2019-05-23T01:31:43.981Z,35.03
2019-05-23T01:32:47.600Z,35.06
2019-05-23T01:33:49.878Z,35.08
2019-05-23T01:34:51.897Z,35.04
2019-05-23T01:35:53.299Z,34.98
2019-05-23T01:36:55.014Z,34.98
2019-05-23T01:37:57.625Z,34.91
2019-05-23T01:39:01.057Z,34.98
2019-05-23T01:40:04.849Z,35.00
2019-05-23T01:41:06.232Z,34.96
2019-05-23T01:42:08.785Z,34.99
2019-05-23T01:43:11.467Z,35.04
2019-05-23T01:44:13.664Z,34.98
2019-05-23T01:45:15.987Z,35.00
2019-05-23T01:46:18.537Z,35.05
2019-05-23T01:47:20.405Z,35.08
2019-05-23T01:48:22.397Z,35.12
2019-05-23T01:49:24.257Z,35.14
2019-05-23T01:50:26.429Z,35.12
2019-05-23T01:51:28.438Z,35.08
2019-05-23T01:52:30.913Z,35.13
2019-05-23T01:53:32.924Z,35.09
2019-05-23T01:54:35.969Z,34.98
2019-05-23T01:55:37.561Z,34.99
2019-05-23T01:56:39.452Z,34.97
2019-05-23T01:57:41.329Z,35.01
2019-05-23T01:58:42.715Z,35.02
2019-05-23T01:59:44.390Z,35.01
2019-05-23T02:00:46.777Z,35.00
2019-05-23T02:01:48.791Z,34.81
2019-05-23T02:02:50.354Z,34.90
2019-05-23T02:03:52.851Z,34.87
2019-05-23T02:04:54.673Z,34.90
2019-05-23T02:05:56.459Z,34.94
2019-05-23T02:06:58.171Z,35.00
2019-05-23T02:08:00.069Z,35.08
2019-05-23T02:09:02.270Z,35.08
2019-05-23T02:10:06.478Z,35.01
2019-05-23T02:11:10.046Z,34.96
2019-05-23T02:12:11.684Z,34.91
2019-05-23T02:13:13.159Z,34.87
2019-05-23T02:14:14.674Z,35.00
2019-05-23T02:15:16.182Z,34.95
2019-05-23T02:16:18.972Z,34.89
2019-05-23T02:17:20.949Z,34.88
2019-05-23T02:18:25.054Z,34.91
2019-05-23T02:19:27.547Z,34.88
2019-05-23T02:20:29.282Z,34.83
2019-05-23T02:21:30.962Z,34.80
2019-05-23T02:22:32.765Z,34.86
2019-05-23T02:23:34.141Z,34.88
2019-05-23T02:24:36.150Z,34.98
2019-05-23T02:25:37.635Z,34.95
2019-05-23T02:26:39.121Z,34.88
2019-05-23T02:27:40.840Z,34.88
2019-05-23T02:28:43.733Z,34.90
2019-05-23T02:29:45.123Z,34.91
2019-05-23T02:30:47.384Z,34.99
2019-05-23T02:31:48.855Z,35.01
2019-05-23T02:32:51.557Z,35.01
2019-05-23T02:33:53.236Z,35.01
2019-05-23T02:34:55.144Z,35.05
2019-05-23T02:35:56.723Z,35.01
2019-05-23T02:37:00.315Z,35.02
2019-05-23T02:38:12.803Z,35.01
2019-05-23T02:39:33.836Z,34.98
2019-05-23T02:40:37.106Z,34.95
2019-05-23T02:41:40.476Z,34.91
2019-05-23T02:42:43.887Z,35.06
2019-05-23T02:43:47.902Z,35.18
2019-05-23T02:44:50.416Z,35.21
2019-05-23T02:46:03.769Z,35.19
2019-05-23T02:47:15.923Z,35.28
2019-05-23T02:48:19.285Z,35.22
2019-05-23T02:49:23.298Z,35.18
2019-05-23T02:50:38.027Z,35.31
2019-05-23T02:51:41.321Z,35.31
2019-05-23T02:52:49.196Z,35.25
2019-05-23T02:53:53.602Z,35.40
2019-05-23T02:54:55.573Z,35.35
2019-05-23T02:56:00.968Z,35.31
2019-05-23T02:57:03.772Z,35.30
2019-05-23T02:58:15.384Z,35.33
2019-05-23T02:59:41.202Z,35.30
2019-05-23T03:00:54.944Z,35.30
2019-05-23T03:02:32.970Z,35.20
2019-05-23T03:03:35.253Z,35.25
2019-05-23T03:04:37.982Z,35.21
2019-05-23T03:05:40.460Z,35.35
2019-05-23T03:06:43.659Z,35.43
2019-05-23T03:07:45.258Z,35.46
2019-05-23T03:08:47.958Z,35.40
2019-05-23T03:09:51.174Z,35.46
2019-05-23T03:11:16.112Z,35.46
2019-05-23T03:12:17.791Z,35.46
2019-05-23T03:13:21.558Z,35.35
2019-05-23T03:14:24.928Z,35.35
2019-05-23T03:15:26.926Z,35.38
2019-05-23T03:16:31.903Z,35.39
2019-05-23T03:17:38.105Z,35.46
2019-05-23T03:18:41.994Z,35.46
2019-05-23T03:19:53.652Z,35.45
2019-05-23T03:20:57.742Z,35.46
2019-05-23T03:22:20.652Z,35.45
2019-05-23T03:23:23.040Z,35.49
2019-05-23T03:24:24.525Z,35.40
2019-05-23T03:25:36.175Z,35.44
2019-05-23T03:26:50.235Z,35.49
2019-05-23T03:27:52.604Z,35.47
2019-05-23T03:28:53.989Z,35.45
2019-05-23T03:29:56.966Z,35.51
2019-05-23T03:31:29.530Z,35.55
2019-05-23T03:32:38.121Z,35.58
2019-05-23T03:33:35.589Z,35.53
2019-05-23T03:34:38.963Z,35.57
2019-05-23T03:35:42.271Z,35.59
2019-05-23T03:36:44.146Z,35.63
2019-05-23T03:37:46.868Z,35.67
2019-05-23T03:38:49.125Z,35.67
2019-05-23T03:39:51.008Z,35.69
2019-05-23T03:40:52.800Z,35.63
2019-05-23T03:41:55.779Z,35.61
2019-05-23T03:42:57.859Z,35.60
2019-05-23T03:44:01.149Z,35.63
2019-05-23T03:45:04.132Z,35.65
2019-05-23T03:46:17.026Z,35.67
2019-05-23T03:47:19.916Z,35.68
2019-05-23T03:48:23.196Z,35.58
2019-05-23T03:49:26.584Z,35.60
2019-05-23T03:50:27.969Z,35.60
2019-05-23T03:51:30.359Z,35.59
2019-05-23T03:52:32.949Z,35.56
2019-05-23T03:53:36.245Z,35.51
2019-05-23T03:54:39.538Z,35.53
2019-05-23T03:55:41.977Z,35.53
2019-05-23T03:56:46.017Z,35.58
2019-05-23T03:57:48.893Z,35.59
2019-05-23T03:58:51.310Z,35.61
2019-05-23T03:59:53.184Z,35.61
2019-05-23T04:00:56.490Z,35.64
2019-05-23T04:01:57.976Z,35.66
2019-05-23T04:03:01.986Z,35.64
2019-05-23T04:04:04.453Z,35.66
2019-05-23T04:05:07.222Z,35.67
2019-05-23T04:06:09.389Z,35.69
2019-05-23T04:07:12.289Z,35.67
2019-05-23T04:08:13.668Z,35.69
2019-05-23T04:09:15.462Z,35.67
2019-05-23T04:10:17.548Z,35.67
2019-05-23T04:11:19.550Z,35.67
2019-05-23T04:12:20.943Z,35.61
2019-05-23T04:13:23.025Z,35.68
2019-05-23T04:14:24.807Z,35.68
2019-05-23T04:15:28.023Z,35.68
2019-05-23T04:16:30.852Z,35.73
2019-05-23T04:17:32.559Z,35.70
2019-05-23T04:18:34.199Z,35.72
2019-05-23T04:19:36.012Z,35.68
2019-05-23T04:20:37.537Z,35.68
2019-05-23T04:21:39.022Z,35.70
2019-05-23T04:22:41.220Z,35.66
2019-05-23T04:23:42.889Z,35.66
2019-05-23T04:24:44.382Z,35.65
2019-05-23T04:25:45.997Z,35.61
2019-05-23T04:26:47.502Z,35.62
2019-05-23T04:27:49.213Z,35.74
2019-05-23T04:28:50.635Z,35.70
2019-05-23T04:29:52.349Z,35.69
2019-05-23T04:30:54.103Z,35.65
2019-05-23T04:32:07.020Z,35.65
2019-05-23T04:32:58.893Z,35.69
2019-05-23T04:34:00.282Z,35.69
2019-05-23T04:35:04.266Z,35.74
2019-05-23T04:36:06.261Z,35.72
2019-05-23T04:37:07.858Z,35.77
2019-05-23T04:38:10.169Z,35.76
2019-05-23T04:39:12.689Z,35.78
2019-05-23T04:40:14.598Z,35.66
2019-05-23T04:41:15.997Z,35.74
2019-05-23T04:42:17.374Z,35.81
2019-05-23T04:43:19.109Z,35.81
2019-05-23T04:44:20.679Z,35.82
2019-05-23T04:45:23.121Z,35.79
2019-05-23T04:46:25.129Z,35.71
2019-05-23T04:47:26.939Z,35.70
2019-05-23T04:48:28.762Z,35.74
2019-05-23T04:49:31.174Z,35.68
2019-05-23T04:50:32.878Z,35.68
2019-05-23T04:51:34.504Z,35.66
2019-05-23T04:52:36.693Z,35.69
2019-05-23T04:53:38.081Z,35.73
2019-05-23T04:54:40.252Z,35.73
2019-05-23T04:55:43.045Z,35.67
2019-05-23T04:56:44.840Z,35.71
2019-05-23T04:57:46.249Z,35.74
2019-05-23T04:58:48.577Z,35.74
2019-05-23T04:59:50.392Z,35.78
2019-05-23T05:00:53.615Z,35.76
2019-05-23T05:01:57.117Z,35.84
2019-05-23T05:02:58.799Z,35.80
2019-05-23T05:04:00.617Z,35.77
2019-05-23T05:05:03.881Z,35.75
2019-05-23T05:06:05.682Z,35.78
2019-05-23T05:07:07.706Z,35.75
2019-05-23T05:08:11.303Z,35.78
2019-05-23T05:09:14.593Z,35.74
2019-05-23T05:10:19.605Z,35.69
2019-05-23T05:11:21.116Z,35.66
2019-05-23T05:12:23.677Z,35.63
2019-05-23T05:13:26.156Z,35.58
2019-05-23T05:14:28.083Z,35.57
2019-05-23T05:15:29.699Z,35.52
2019-05-23T05:16:31.874Z,35.51
2019-05-23T05:17:33.585Z,35.48
2019-05-23T05:18:35.765Z,35.40
2019-05-23T05:19:37.756Z,35.38
2019-05-23T05:20:39.748Z,35.31
2019-05-23T05:21:41.133Z,35.22
2019-05-23T05:22:42.969Z,35.19
2019-05-23T05:23:44.350Z,35.15
2019-05-23T05:24:45.748Z,35.04
2019-05-23T05:25:47.228Z,34.97
2019-05-23T05:26:48.616Z,34.84
2019-05-23T05:27:50.455Z,34.75
2019-05-23T05:28:52.098Z,34.71
2019-05-23T05:29:53.807Z,34.56
2019-05-23T05:30:55.612Z,34.52
2019-05-23T05:31:57.123Z,34.46
2019-05-23T05:32:58.825Z,34.35
2019-05-23T05:34:00.201Z,34.29
2019-05-23T05:35:01.899Z,34.25
2019-05-23T05:36:03.655Z,34.10
2019-05-23T05:37:05.204Z,34.08
2019-05-23T05:38:06.627Z,34.00
2019-05-23T05:39:09.937Z,34.08
2019-05-23T05:40:13.160Z,34.00
2019-05-23T05:41:14.577Z,33.93
2019-05-23T05:42:16.495Z,33.88
2019-05-23T05:43:18.841Z,33.86
2019-05-23T05:44:20.581Z,33.82
2019-05-23T05:45:22.440Z,33.73
2019-05-23T05:46:24.290Z,33.67
2019-05-23T05:47:25.977Z,33.54
2019-05-23T05:48:27.879Z,33.52
2019-05-23T05:49:29.477Z,33.40
2019-05-23T05:50:30.969Z,33.37
2019-05-23T05:51:32.352Z,33.29
2019-05-23T05:52:34.246Z,33.27
2019-05-23T05:53:36.365Z,33.24
2019-05-23T05:54:37.956Z,33.17
2019-05-23T05:55:39.367Z,33.13
2019-05-23T05:56:40.936Z,33.06
2019-05-23T05:57:42.342Z,33.09
2019-05-23T05:58:43.756Z,33.03
2019-05-23T05:59:45.134Z,33.06
2019-05-23T06:00:48.832Z,33.04
2019-05-23T06:01:50.717Z,33.11
2019-05-23T06:03:03.619Z,33.13
2019-05-23T06:03:55.811Z,32.96
2019-05-23T06:04:57.214Z,32.94
2019-05-23T06:06:17.265Z,32.95
2019-05-23T06:07:29.531Z,32.83
2019-05-23T06:08:32.855Z,32.80
2019-05-23T06:09:35.944Z,32.80
2019-05-23T06:10:38.029Z,32.85
2019-05-23T06:11:39.436Z,32.74
2019-05-23T06:12:41.709Z,32.81
2019-05-23T06:13:43.297Z,32.82
2019-05-23T06:14:46.597Z,32.70
2019-05-23T06:15:50.875Z,32.55
2019-05-23T06:16:53.041Z,32.59
2019-05-23T06:17:54.513Z,32.55
2019-05-23T06:18:56.324Z,32.59
2019-05-23T06:19:58.236Z,32.67
2019-05-23T06:20:59.736Z,32.65
2019-05-23T06:22:01.518Z,32.63
2019-05-23T06:23:03.153Z,32.60
2019-05-23T06:24:04.937Z,32.57
2019-05-23T06:25:08.372Z,32.54
2019-05-23T06:26:12.914Z,32.53
2019-05-23T06:27:16.625Z,32.45
2019-05-23T06:28:19.106Z,32.44
2019-05-23T06:29:21.365Z,32.50
2019-05-23T06:30:24.373Z,32.48
2019-05-23T06:31:25.749Z,32.44
2019-05-23T06:32:28.565Z,32.46
2019-05-23T06:33:30.143Z,32.49
2019-05-23T06:34:31.841Z,32.44
2019-05-23T06:35:33.430Z,32.41
2019-05-23T06:36:35.230Z,32.49
2019-05-23T06:37:39.044Z,32.68
2019-05-23T06:38:40.853Z,32.79
2019-05-23T06:39:43.363Z,32.78
2019-05-23T06:40:44.900Z,32.78
2019-05-23T06:41:46.561Z,32.55
2019-05-23T06:42:50.938Z,32.48
2019-05-23T06:43:51.344Z,32.39
2019-05-23T06:44:53.540Z,32.39
2019-05-23T06:45:55.078Z,32.40
2019-05-23T06:46:56.843Z,32.38
2019-05-23T06:47:58.764Z,32.40
2019-05-23T06:49:00.587Z,32.37
2019-05-23T06:50:08.666Z,32.39
2019-05-23T06:51:10.209Z,32.29
2019-05-23T06:52:11.587Z,32.37
2019-05-23T06:53:13.090Z,32.29
2019-05-23T06:54:14.766Z,32.34
2019-05-23T06:55:16.434Z,32.27
2019-05-23T06:56:18.094Z,32.30
2019-05-23T06:57:20.097Z,32.24
2019-05-23T06:58:22.218Z,32.26
2019-05-23T06:59:24.586Z,32.28
2019-05-23T07:00:27.702Z,32.29
2019-05-23T07:01:29.198Z,32.30
2019-05-23T07:02:32.188Z,32.34
2019-05-23T07:03:42.601Z,32.31
2019-05-23T07:04:37.262Z,32.41
2019-05-23T07:05:38.668Z,32.41
2019-05-23T07:06:40.081Z,32.50
2019-05-23T07:07:41.753Z,32.47
2019-05-23T07:08:43.149Z,32.45
2019-05-23T07:09:44.620Z,32.45
2019-05-23T07:10:46.026Z,32.43
2019-05-23T07:11:48.126Z,32.46
2019-05-23T07:12:49.537Z,32.38
2019-05-23T07:13:51.138Z,32.45
2019-05-23T07:14:52.545Z,32.44
2019-05-23T07:15:54.056Z,32.34
2019-05-23T07:16:55.457Z,32.33
2019-05-23T07:17:58.005Z,32.39
2019-05-23T07:18:59.430Z,32.31
2019-05-23T07:20:03.625Z,32.31
2019-05-23T07:21:07.534Z,32.29
2019-05-23T07:22:08.931Z,32.34
2019-05-23T07:23:11.104Z,32.35
2019-05-23T07:25:26.890Z,32.54
2019-05-23T07:26:28.910Z,32.63
2019-05-23T07:27:31.566Z,32.60
2019-05-23T07:28:33.626Z,32.56
2019-05-23T07:29:35.055Z,32.58
2019-05-23T07:30:36.432Z,32.60
2019-05-23T07:31:37.935Z,32.64
2019-05-23T07:32:39.452Z,32.60
2019-05-23T07:33:59.923Z,32.59
2019-05-23T07:34:45.862Z,32.56
2019-05-23T07:35:47.424Z,32.56
2019-05-23T07:36:49.232Z,32.58
2019-05-23T07:37:50.864Z,32.56
2019-05-23T07:38:52.448Z,32.54
2019-05-23T07:39:53.949Z,32.60
2019-05-23T07:40:56.342Z,32.56
2019-05-23T07:41:58.041Z,32.57
2019-05-23T07:43:00.360Z,32.65
2019-05-23T07:44:01.781Z,32.64
2019-05-23T07:45:04.575Z,32.62
2019-05-23T07:46:06.908Z,32.58
2019-05-23T07:47:10.201Z,32.56
2019-05-23T07:48:12.169Z,32.66
2019-05-23T07:49:14.049Z,32.65
2019-05-23T07:50:15.930Z,32.62
2019-05-23T07:51:17.710Z,32.61
2019-05-23T07:52:19.109Z,32.65
2019-05-23T07:53:39.357Z,32.67
2019-05-23T07:54:48.778Z,32.63
2019-05-23T07:55:52.273Z,32.57
2019-05-23T07:56:53.636Z,32.54
2019-05-23T07:57:55.149Z,32.55
2019-05-23T07:58:56.572Z,32.57
2019-05-23T07:59:57.956Z,32.61
2019-05-23T08:01:01.346Z,32.58
2019-05-23T08:02:13.996Z,32.60
2019-05-23T08:03:16.494Z,32.60
2019-05-23T08:04:21.741Z,32.59
2019-05-23T08:05:22.637Z,32.70
2019-05-23T08:06:24.335Z,32.72
2019-05-23T08:07:26.705Z,32.70
2019-05-23T08:08:28.192Z,32.72
2019-05-23T08:09:29.901Z,32.72
2019-05-23T08:10:34.101Z,32.68
2019-05-23T08:11:35.584Z,32.68
2019-05-23T08:12:37.071Z,32.67
2019-05-23T08:13:38.765Z,32.66
2019-05-23T08:14:40.361Z,32.67
2019-05-23T08:15:41.759Z,32.71
2019-05-23T08:16:43.352Z,32.71
2019-05-23T08:17:45.444Z,32.68
2019-05-23T08:18:47.010Z,32.88
2019-05-23T08:19:50.310Z,32.90
2019-05-23T08:20:52.201Z,32.77
2019-05-23T08:21:53.618Z,32.76
2019-05-23T08:22:55.325Z,32.70
2019-05-23T08:23:56.830Z,32.70
2019-05-23T08:24:58.259Z,32.69
2019-05-23T08:26:00.156Z,32.68
2019-05-23T08:27:02.177Z,32.68
2019-05-23T08:28:03.981Z,32.70
2019-05-23T08:29:24.866Z,32.77
2019-05-23T08:30:10.649Z,32.77
2019-05-23T08:31:12.238Z,32.71
2019-05-23T08:32:15.043Z,32.65
2019-05-23T08:33:17.037Z,32.67
2019-05-23T08:34:18.524Z,32.68
2019-05-23T08:35:20.237Z,32.74
2019-05-23T08:36:22.348Z,32.70
2019-05-23T08:37:23.959Z,32.68
2019-05-23T08:38:25.770Z,32.69
2019-05-23T08:39:28.080Z,32.68
2019-05-23T08:40:30.201Z,32.68
2019-05-23T08:41:31.776Z,32.69
2019-05-23T08:42:34.373Z,32.70
2019-05-23T08:43:36.457Z,32.70
2019-05-23T08:44:38.882Z,32.64
2019-05-23T08:45:40.377Z,32.68
2019-05-23T08:46:42.392Z,32.83
2019-05-23T08:47:43.809Z,32.99
2019-05-23T08:48:45.390Z,32.99
2019-05-23T08:49:46.856Z,32.93
2019-05-23T08:50:51.368Z,32.73
2019-05-23T08:51:51.999Z,32.75
2019-05-23T08:52:53.443Z,32.66
2019-05-23T08:53:54.833Z,32.68
2019-05-23T08:54:59.827Z,32.63
2019-05-23T08:56:01.349Z,32.64
2019-05-23T08:57:04.821Z,32.66
2019-05-23T08:58:08.336Z,32.57
2019-05-23T08:59:10.116Z,32.56
2019-05-23T09:00:12.814Z,32.56
2019-05-23T09:01:14.938Z,32.59
2019-05-23T09:02:17.358Z,32.58
2019-05-23T09:03:19.322Z,32.61
2019-05-23T09:04:21.015Z,32.59
2019-05-23T09:05:28.096Z,32.58
2019-05-23T09:06:30.124Z,32.57
2019-05-23T09:07:32.083Z,32.61
2019-05-23T09:08:33.585Z,32.53
2019-05-23T09:09:35.460Z,32.54
2019-05-23T09:10:37.673Z,32.56
2019-05-23T09:11:39.692Z,32.53
2019-05-23T09:12:41.891Z,32.53
2019-05-23T09:13:43.787Z,32.54
2019-05-23T09:14:45.280Z,32.54
2019-05-23T09:15:47.072Z,32.52
2019-05-23T09:16:48.606Z,32.56
2019-05-23T09:17:53.628Z,32.58
2019-05-23T09:18:54.173Z,32.58
2019-05-23T09:19:55.715Z,32.53
2019-05-23T09:20:57.106Z,32.58
2019-05-23T09:21:59.118Z,32.60
2019-05-23T09:23:00.614Z,32.62
2019-05-23T09:24:03.398Z,32.61
2019-05-23T09:25:05.601Z,32.63
2019-05-23T09:26:07.021Z,32.58
2019-05-23T09:27:09.449Z,32.60
2019-05-23T09:28:12.327Z,32.57
2019-05-23T09:29:14.084Z,32.60
2019-05-23T09:30:19.864Z,32.62
2019-05-23T09:31:22.052Z,32.63
2019-05-23T09:32:23.964Z,32.63
2019-05-23T09:33:25.446Z,32.64
2019-05-23T09:34:27.143Z,32.57
2019-05-23T09:35:29.257Z,32.57
2019-05-23T09:36:31.132Z,32.56
2019-05-23T09:37:33.327Z,32.55
2019-05-23T09:38:34.744Z,32.59
2019-05-23T09:39:38.061Z,32.56
2019-05-23T09:40:39.473Z,32.57
2019-05-23T09:41:41.190Z,32.69
2019-05-23T09:42:42.945Z,32.83
2019-05-23T09:43:44.324Z,32.86
2019-05-23T09:44:45.854Z,32.86
2019-05-23T09:45:47.338Z,32.80
2019-05-23T09:46:48.701Z,32.72
2019-05-23T09:47:51.521Z,32.63
2019-05-23T09:48:53.133Z,32.62
2019-05-23T09:49:55.027Z,32.54
2019-05-23T09:50:57.582Z,32.51
2019-05-23T09:52:01.327Z,32.58
2019-05-23T09:53:02.385Z,32.61
2019-05-23T09:54:03.808Z,32.56
2019-05-23T09:55:06.915Z,32.54
2019-05-23T09:56:08.314Z,32.56
2019-05-23T09:57:11.198Z,32.59
2019-05-23T09:58:12.668Z,32.58
2019-05-23T09:59:14.111Z,32.51
2019-05-23T10:00:17.689Z,32.54
2019-05-23T10:01:19.673Z,32.57
2019-05-23T10:02:21.273Z,32.57
2019-05-23T10:03:22.909Z,32.58
2019-05-23T10:04:25.394Z,32.55
2019-05-23T10:05:41.804Z,32.56
2019-05-23T10:06:30.454Z,32.53
2019-05-23T10:07:32.070Z,32.50
2019-05-23T10:08:33.492Z,32.53
2019-05-23T10:09:34.977Z,32.55
2019-05-23T10:10:36.479Z,32.55
2019-05-23T10:11:37.862Z,32.58
2019-05-23T10:12:39.261Z,32.63
2019-05-23T10:13:40.884Z,32.61
2019-05-23T10:14:42.325Z,32.62
2019-05-23T10:15:54.973Z,32.61
2019-05-23T10:16:56.333Z,32.62
2019-05-23T10:18:00.715Z,32.56
2019-05-23T10:19:01.251Z,32.60
2019-05-23T10:20:06.045Z,32.60
2019-05-23T10:21:07.622Z,32.63
2019-05-23T10:22:09.900Z,32.64
2019-05-23T10:23:11.408Z,32.65
2019-05-23T10:24:13.391Z,32.65
2019-05-23T10:25:14.806Z,32.66
2019-05-23T10:26:16.704Z,32.68
2019-05-23T10:27:19.524Z,32.71
2019-05-23T10:28:22.042Z,32.63
2019-05-23T10:29:23.572Z,32.67
2019-05-23T10:30:25.194Z,32.66
2019-05-23T10:31:26.682Z,32.67
2019-05-23T10:32:28.176Z,32.71
2019-05-23T10:33:29.567Z,32.73
2019-05-23T10:34:30.959Z,32.74
2019-05-23T10:35:33.134Z,32.79
2019-05-23T10:36:34.524Z,32.79
2019-05-23T10:37:35.907Z,32.75
2019-05-23T10:38:37.294Z,32.73
2019-05-23T10:39:45.206Z,32.70
2019-05-23T10:40:46.817Z,32.71
2019-05-23T10:41:48.227Z,32.68
2019-05-23T10:42:49.839Z,32.70
2019-05-23T10:43:52.457Z,32.69
2019-05-23T10:44:54.469Z,32.71
2019-05-23T10:45:55.953Z,32.70
2019-05-23T10:46:57.344Z,32.67
2019-05-23T10:47:59.234Z,32.62
2019-05-23T10:49:00.717Z,32.66
2019-05-23T10:50:08.471Z,32.71
2019-05-23T10:51:08.997Z,32.70
2019-05-23T10:52:10.463Z,32.64
2019-05-23T10:53:12.261Z,32.64
2019-05-23T10:54:13.651Z,32.64
2019-05-23T10:55:15.264Z,32.69
2019-05-23T10:56:20.512Z,32.74
2019-05-23T10:57:21.270Z,32.73
2019-05-23T10:58:22.648Z,32.71
2019-05-23T10:59:24.633Z,32.68
2019-05-23T11:00:28.459Z,32.68
2019-05-23T11:01:30.229Z,32.66
2019-05-23T11:02:32.629Z,32.69
2019-05-23T11:03:34.506Z,32.66
2019-05-23T11:04:35.906Z,32.66
2019-05-23T11:05:37.508Z,32.71
2019-05-23T11:06:38.898Z,32.67
2019-05-23T11:07:40.441Z,32.67
2019-05-23T11:08:42.530Z,32.61
2019-05-23T11:09:43.924Z,32.60
2019-05-23T11:10:46.148Z,32.63
2019-05-23T11:11:47.530Z,32.64
2019-05-23T11:12:49.437Z,32.62
2019-05-23T11:13:50.880Z,32.65
2019-05-23T11:14:52.673Z,32.67
2019-05-23T11:15:54.305Z,32.63
2019-05-23T11:16:55.801Z,32.65
2019-05-23T11:17:57.281Z,32.65
2019-05-23T11:18:59.479Z,32.66
2019-05-23T11:20:02.037Z,32.67
2019-05-23T11:21:04.078Z,32.65
2019-05-23T11:22:06.659Z,32.61
2019-05-23T11:23:08.424Z,32.62
2019-05-23T11:24:10.402Z,32.59
2019-05-23T11:25:12.703Z,32.61
2019-05-23T11:26:14.626Z,32.57
2019-05-23T11:27:17.008Z,32.57
2019-05-23T11:28:18.598Z,32.59
2019-05-23T11:29:20.027Z,32.60
2019-05-23T11:30:27.753Z,32.56
2019-05-23T11:31:29.561Z,32.60
2019-05-23T11:32:30.981Z,32.58
2019-05-23T11:33:32.475Z,32.59
2019-05-23T11:34:34.145Z,32.62
2019-05-23T11:35:35.942Z,32.67
2019-05-23T11:36:37.861Z,32.67
2019-05-23T11:37:41.875Z,32.65
2019-05-23T11:38:42.873Z,32.68
2019-05-23T11:39:49.658Z,32.69
2019-05-23T11:40:47.925Z,32.73
2019-05-23T11:41:49.753Z,32.65
2019-05-23T11:42:52.833Z,32.60
2019-05-23T11:43:54.526Z,32.64
2019-05-23T11:44:55.902Z,32.60
2019-05-23T11:46:01.513Z,32.65
2019-05-23T11:47:03.287Z,32.63
2019-05-23T11:48:05.182Z,32.63
2019-05-23T11:49:06.872Z,32.63
2019-05-23T11:50:08.667Z,32.62
2019-05-23T11:51:10.353Z,32.65
2019-05-23T11:52:11.894Z,32.67
2019-05-23T11:53:13.526Z,32.66
2019-05-23T11:54:16.137Z,32.67
2019-05-23T11:55:18.149Z,32.67
2019-05-23T11:56:19.660Z,32.65
2019-05-23T11:57:21.405Z,32.64
2019-05-23T11:58:22.983Z,32.65
2019-05-23T11:59:24.584Z,32.65
2019-05-23T12:00:50.572Z,32.68
2019-05-23T12:01:56.465Z,32.70
2019-05-23T12:02:58.063Z,32.64
2019-05-23T12:04:10.462Z,32.69
2019-05-23T12:05:20.160Z,32.71
2019-05-23T12:06:25.788Z,32.72
2019-05-23T12:07:27.355Z,32.79
2019-05-23T12:08:29.088Z,32.83
2019-05-23T12:09:30.867Z,32.84
2019-05-23T12:10:32.256Z,32.86
2019-05-23T12:11:36.562Z,32.90
2019-05-23T12:12:37.169Z,32.85
2019-05-23T12:13:38.639Z,32.86
2019-05-23T12:14:40.635Z,32.87
2019-05-23T12:15:43.519Z,32.87
2019-05-23T12:16:45.305Z,32.89
2019-05-23T12:17:46.924Z,32.88
2019-05-23T12:18:48.435Z,32.89
2019-05-23T12:19:49.956Z,32.90
2019-05-23T12:20:51.461Z,32.96
2019-05-23T12:21:53.074Z,32.96
2019-05-23T12:22:54.640Z,32.98
2019-05-23T12:23:56.180Z,32.90
2019-05-23T12:24:57.574Z,32.90
2019-05-23T12:25:58.963Z,32.89
2019-05-23T12:27:00.349Z,32.82
2019-05-23T12:28:02.273Z,32.88
2019-05-23T12:29:03.753Z,32.91
2019-05-23T12:30:08.363Z,32.90
2019-05-23T12:31:09.934Z,32.94
2019-05-23T12:32:12.745Z,32.92
2019-05-23T12:33:14.166Z,32.92
2019-05-23T12:34:15.547Z,32.97
2019-05-23T12:35:16.938Z,32.95
2019-05-23T12:36:19.135Z,32.99
2019-05-23T12:37:20.964Z,32.99
2019-05-23T12:38:23.399Z,33.09
2019-05-23T12:39:24.840Z,33.14
2019-05-23T12:40:26.482Z,33.17
2019-05-23T12:41:27.857Z,33.16
2019-05-23T12:42:29.339Z,33.13
2019-05-23T12:43:30.715Z,33.09
2019-05-23T12:44:32.089Z,33.01
2019-05-23T12:45:33.473Z,32.95
2019-05-23T12:46:34.965Z,32.89
2019-05-23T12:47:38.474Z,32.84
2019-05-23T12:48:41.750Z,32.81
2019-05-23T12:49:46.036Z,32.79
2019-05-23T12:50:53.761Z,32.74
2019-05-23T12:51:55.235Z,32.72
2019-05-23T12:52:56.617Z,32.71
2019-05-23T12:53:58.082Z,32.69
2019-05-23T12:54:59.963Z,32.67
2019-05-23T12:56:02.212Z,32.67
2019-05-23T12:57:05.062Z,32.69
2019-05-23T12:58:06.749Z,32.70
2019-05-23T12:59:09.048Z,32.76
2019-05-23T13:00:29.188Z,32.80
2019-05-23T13:01:31.581Z,32.79
2019-05-23T13:02:32.965Z,32.76
2019-05-23T13:03:34.762Z,32.81
2019-05-23T13:04:36.249Z,32.83
2019-05-23T13:05:38.349Z,32.86
2019-05-23T13:06:40.666Z,32.87
2019-05-23T13:07:42.205Z,32.87
2019-05-23T13:08:43.857Z,32.84
2019-05-23T13:09:45.367Z,32.88
2019-05-23T13:10:46.877Z,32.86
2019-05-23T13:11:48.766Z,32.88
2019-05-23T13:12:50.240Z,32.88
2019-05-23T13:13:51.642Z,32.92
2019-05-23T13:14:58.163Z,32.93
2019-05-23T13:15:56.408Z,32.95
2019-05-23T13:17:01.162Z,32.96
2019-05-23T13:18:01.841Z,32.96
2019-05-23T13:19:03.861Z,32.97
2019-05-23T13:20:06.368Z,33.03
2019-05-23T13:21:07.887Z,33.06
2019-05-23T13:22:10.509Z,33.09
2019-05-23T13:23:20.249Z,33.05
2019-05-23T13:24:15.882Z,33.02
2019-05-23T13:25:17.452Z,33.02
2019-05-23T13:26:18.853Z,33.01
2019-05-23T13:27:20.364Z,33.01
2019-05-23T13:28:22.079Z,33.01
2019-05-23T13:29:24.921Z,33.01
2019-05-23T13:30:26.699Z,33.00
2019-05-23T13:31:28.616Z,33.07
2019-05-23T13:32:30.037Z,33.06
2019-05-23T13:33:31.416Z,33.02